Time;durP1;ratioP1;P1;durP2;ratioP2;P2;SDS_P1;SDS_P2;PMS_P1;PMS_P2;Temp;Humidity;BMP_temperature;BMP_pressure;BME280_temperature;BME280_humidity;BME280_pressure;Samples;Min_cycle;Max_cycle;Signal;HPM_P1;HPM_P2
2021/05/27 00:01:31;;;;;;;1.17;0.70;;;16.90;75.00;;;;;;4919980;28;96406;-38
2021/05/27 00:04:02;;;;;;;1.52;0.90;;;16.80;75.10;;;;;;4920608;28;95818;-38
2021/05/27 00:06:32;;;;;;;3.53;0.83;;;16.90;75.20;;;;;;4922958;28;95916;-38
2021/05/27 00:09:04;;;;;;;1.52;1.15;;;16.80;75.00;;;;;;4925211;28;96068;-37
2021/05/27 00:11:36;;;;;;;1.60;0.60;;;16.80;75.10;;;;;;4922306;28;98986;-37
2021/05/27 00:14:07;;;;;;;1.25;0.80;;;16.80;75.10;;;;;;4926383;28;95870;-37
2021/05/27 00:16:38;;;;;;;2.00;1.17;;;16.80;75.10;;;;;;4927677;28;95890;-38
2021/05/27 00:19:09;;;;;;;2.42;0.90;;;16.80;75.10;;;;;;4943594;28;96698;-37
2021/05/27 00:21:41;;;;;;;1.33;0.70;;;16.80;75.10;;;;;;4939988;28;96265;-38
2021/05/27 00:24:12;;;;;;;1.33;0.90;;;16.70;75.10;;;;;;4945189;28;95693;-45
2021/05/27 00:26:43;;;;;;;2.35;1.00;;;16.70;75.10;;;;;;4940851;28;95782;-45
2021/05/27 00:29:14;;;;;;;1.52;0.80;;;16.70;75.30;;;;;;4942038;28;96956;-45
2021/05/27 00:31:46;;;;;;;4.75;1.10;;;16.70;75.30;;;;;;4922264;28;97174;-46
2021/05/27 00:34:20;;;;;;;1.80;0.93;;;16.80;75.50;;;;;;4944245;28;95757;-45
2021/05/27 00:36:50;;;;;;;2.17;0.95;;;16.80;75.40;;;;;;4941083;28;95768;-44
2021/05/27 00:39:21;;;;;;;1.73;1.10;;;16.70;75.50;;;;;;4939470;28;96106;-44
2021/05/27 00:41:52;;;;;;;;;;;16.80;75.60;;;;;;4945717;28;95905;-45
2021/05/27 00:44:23;;;;;;;2.00;1.00;;;16.80;75.90;;;;;;4942366;28;96091;-45
2021/05/27 00:46:56;;;;;;;5.82;1.60;;;16.80;75.60;;;;;;4940879;28;96301;-45
2021/05/27 00:49:27;;;;;;;2.90;1.35;;;16.90;75.70;;;;;;4941684;28;96391;-45
2021/05/27 00:51:57;;;;;;;4.63;1.48;;;16.90;75.80;;;;;;4946473;28;95868;-46
2021/05/27 00:54:28;;;;;;;2.53;1.50;;;16.90;75.50;;;;;;4943400;28;95761;-39
2021/05/27 00:56:59;;;;;;;;;;;16.90;75.40;;;;;;4946528;28;95679;-38
2021/05/27 00:59:31;;;;;;;5.43;1.55;;;17.00;75.30;;;;;;4941327;28;96606;-38
2021/05/27 01:02:03;;;;;;;10.88;1.98;;;17.00;75.30;;;;;;4950230;28;96189;-37
2021/05/27 01:04:33;;;;;;;2.78;1.60;;;17.00;75.30;;;;;;4943248;28;95494;-36
2021/05/27 01:07:25;;;;;;;3.75;1.30;;;17.00;75.20;;;;;;4944493;28;95705;-37
2021/05/27 01:09:57;;;;;;;2.95;1.30;;;17.00;75.10;;;;;;4942644;28;96369;-37
2021/05/27 01:12:29;;;;;;;1.90;1.10;;;17.10;75.00;;;;;;4945338;28;97922;-37
2021/05/27 01:18:15;;;;;;;2.53;1.35;;;17.10;74.90;;;;;;4947100;28;95719;-37
2021/05/27 01:20:57;;;;;;;2.28;1.50;;;17.10;74.90;;;;;;4946044;28;96824;-38
2021/05/27 01:23:30;;;;;;;5.80;1.42;;;17.10;74.80;;;;;;4949161;28;95610;-38
2021/05/27 01:26:01;;;;;;;2.08;1.20;;;17.20;74.70;;;;;;4944002;28;95421;-37
2021/05/27 01:28:36;;;;;;;1.73;1.38;;;17.20;75.40;;;;;;4941342;28;95859;-38
2021/05/27 01:31:10;;;;;;;3.67;1.42;;;17.20;74.90;;;;;;4939571;28;96153;-37
2021/05/27 01:33:41;;;;;;;1.75;1.33;;;17.20;75.00;;;;;;4947492;28;95830;-38
2021/05/27 01:36:11;;;;;;;3.58;1.17;;;17.20;74.80;;;;;;4944708;28;95774;-38
2021/05/27 01:38:41;;;;;;;3.08;1.33;;;17.30;74.70;;;;;;4948102;28;95693;-37
2021/05/27 01:41:14;;;;;;;1.65;1.02;;;17.40;74.60;;;;;;4941718;28;96774;-38
2021/05/27 01:43:47;;;;;;;1.33;1.17;;;17.40;74.20;;;;;;4947079;28;95762;-37
2021/05/27 01:46:17;;;;;;;;;;;17.40;74.00;;;;;;4937719;28;95332;-38
2021/05/27 01:48:47;;;;;;;2.85;1.23;;;17.50;73.90;;;;;;4949986;28;96050;-38
2021/05/27 01:51:18;;;;;;;3.35;1.85;;;17.50;73.90;;;;;;4943137;28;98979;-37
2021/05/27 01:53:51;;;;;;;5.03;1.45;;;17.50;73.90;;;;;;4947400;28;96202;-36
2021/05/27 01:56:24;;;;;;;2.40;1.15;;;17.50;74.00;;;;;;4939487;28;95909;-37
2021/05/27 01:59:16;;;;;;;4.13;1.65;;;17.50;73.80;;;;;;4949766;28;95735;-36
2021/05/27 02:01:51;;;;;;;4.80;1.70;;;17.50;73.70;;;;;;4928704;28;96166;-37
2021/05/27 02:04:23;;;;;;;10.18;1.95;;;17.50;73.80;;;;;;4928555;28;96375;-37
2021/05/27 02:06:55;;;;;;;4.97;1.80;;;17.50;73.60;;;;;;4923985;28;95695;-37
2021/05/27 02:09:27;;;;;;;2.28;1.20;;;17.60;73.60;;;;;;4929220;28;95770;-37
2021/05/27 02:12:04;;;;;;;3.33;1.52;;;17.60;73.40;;;;;;4923631;28;98809;-37
2021/05/27 02:14:36;;;;;;;3.40;1.42;;;17.50;73.30;;;;;;4928712;28;96353;-37
2021/05/27 02:17:08;;;;;;;3.97;1.40;;;17.50;73.30;;;;;;4930019;28;97867;-37
2021/05/27 02:19:39;;;;;;;2.88;1.42;;;17.40;73.20;;;;;;4947296;28;95753;-45
2021/05/27 02:22:10;;;;;;;2.20;1.17;;;17.50;73.30;;;;;;4941439;28;97279;-45
2021/05/27 02:25:01;;;;;;;4.18;1.75;;;17.40;73.30;;;;;;4945686;28;96121;-45
2021/05/27 02:27:35;;;;;;;4.78;1.63;;;17.40;73.30;;;;;;4942390;28;95578;-45
2021/05/27 02:30:07;;;;;;;6.93;1.60;;;17.40;73.30;;;;;;4945515;28;95447;-44
2021/05/27 02:32:39;;;;;;;2.03;1.02;;;17.40;73.40;;;;;;4957109;28;99687;-44
2021/05/27 02:35:11;;;;;;;2.05;1.10;;;17.40;73.50;;;;;;4945692;28;95919;-44
2021/05/27 02:37:43;;;;;;;2.85;1.38;;;17.30;73.60;;;;;;4940171;28;97561;-45
2021/05/27 02:40:15;;;;;;;2.78;1.50;;;17.30;73.50;;;;;;4945001;28;95898;-45
2021/05/27 02:42:47;;;;;;;3.33;1.55;;;17.30;73.60;;;;;;4942650;28;96130;-44
2021/05/27 02:45:19;;;;;;;2.83;1.58;;;17.20;73.50;;;;;;4944439;28;97598;-45
2021/05/27 02:47:49;;;;;;;2.87;1.10;;;17.20;73.50;;;;;;4942777;28;95523;-45
2021/05/27 02:50:23;;;;;;;4.68;1.35;;;17.20;73.60;;;;;;4946999;28;96073;-45
2021/05/27 02:52:57;;;;;;;2.80;1.15;;;17.20;73.70;;;;;;4944839;28;96118;-45
2021/05/27 02:55:33;;;;;;;3.65;1.35;;;17.30;73.70;;;;;;4945540;28;96012;-46
2021/05/27 02:58:04;;;;;;;1.45;1.10;;;17.30;73.70;;;;;;4939027;28;95787;-45
2021/05/27 03:00:38;;;;;;;5.43;1.60;;;17.30;73.50;;;;;;4943899;28;95883;-44
2021/05/27 03:03:20;;;;;;;3.83;1.23;;;17.30;73.50;;;;;;4933338;28;96828;-45
2021/05/27 03:05:51;;;;;;;3.38;1.38;;;17.30;73.60;;;;;;4944702;28;96369;-45
2021/05/27 03:08:25;;;;;;;2.42;1.08;;;17.30;73.60;;;;;;4943904;28;95834;-45
2021/05/27 03:10:57;;;;;;;2.97;1.10;;;17.20;74.20;;;;;;4945092;28;96107;-45
2021/05/27 03:13:30;;;;;;;3.20;1.35;;;17.30;73.70;;;;;;4939634;28;96123;-45
2021/05/27 03:16:04;;;;;;;3.72;1.42;;;17.20;73.60;;;;;;4940437;28;96378;-45
2021/05/27 03:18:35;;;;;;;1.95;1.23;;;17.20;73.60;;;;;;4938251;28;96170;-44
2021/05/27 03:21:07;;;;;;;2.25;1.60;;;17.20;73.60;;;;;;4942419;28;97010;-45
2021/05/27 03:23:39;;;;;;;3.58;1.38;;;17.20;73.70;;;;;;4939021;28;96958;-44
2021/05/27 03:26:10;;;;;;;2.00;1.48;;;17.20;73.70;;;;;;4947570;28;95623;-44
2021/05/27 03:28:44;;;;;;;2.33;1.20;;;17.20;73.80;;;;;;4936763;28;95255;-45
2021/05/27 03:31:17;;;;;;;4.20;1.95;;;17.30;74.00;;;;;;4942686;28;95952;-45
2021/05/27 03:33:48;;;;;;;2.55;1.33;;;17.30;73.80;;;;;;4942444;28;98197;-45
2021/05/27 03:36:18;;;;;;;2.63;1.30;;;17.40;73.60;;;;;;4943887;28;97836;-41
2021/05/27 03:38:50;;;;;;;1.85;1.40;;;17.40;73.70;;;;;;4947824;28;97560;-45
2021/05/27 03:41:22;;;;;;;4.75;1.52;;;17.40;73.90;;;;;;4939491;28;95621;-44
2021/05/27 03:43:56;;;;;;;2.20;1.02;;;17.40;73.80;;;;;;4945536;28;98175;-45
2021/05/27 03:46:27;;;;;;;1.57;0.90;;;17.50;73.50;;;;;;4936019;28;98084;-45
2021/05/27 03:48:57;;;;;;;1.88;1.17;;;17.60;73.40;;;;;;4946692;28;95393;-46
2021/05/27 03:51:30;;;;;;;4.32;1.42;;;17.50;73.30;;;;;;4940526;28;95908;-46
2021/05/27 03:54:01;;;;;;;3.67;1.27;;;17.60;73.20;;;;;;4954993;28;96234;-46
2021/05/27 03:56:33;;;;;;;4.47;1.25;;;17.60;73.40;;;;;;4937333;28;96118;-46
2021/05/27 04:02:06;;;;;;;2.42;1.10;;;17.60;74.10;;;;;;4938583;28;95929;-46
2021/05/27 04:07:39;;;;;;;2.88;1.30;;;17.70;73.60;;;;;;4942198;28;96249;-39
2021/05/27 04:10:10;;;;;;;;;;;17.70;73.50;;;;;;4943665;28;97913;-39
2021/05/27 04:12:47;;;;;;;2.63;1.10;;;17.70;73.50;;;;;;4939152;28;95903;-38
2021/05/27 04:15:32;;;;;;;1.65;0.90;;;17.70;73.40;;;;;;4941181;28;96539;-41
2021/05/27 04:18:03;;;;;;;;;;;17.80;73.50;;;;;;4936618;28;101975;-38
2021/05/27 04:20:40;;;;;;;3.33;1.10;;;17.70;73.50;;;;;;4945491;28;95836;-39
2021/05/27 04:23:32;;;;;;;3.00;1.00;;;17.70;73.40;;;;;;4939122;28;96064;-39
2021/05/27 04:26:13;;;;;;;2.00;1.05;;;17.80;73.50;;;;;;4941411;28;96568;-39
2021/05/27 04:28:45;;;;;;;2.08;1.08;;;17.80;73.60;;;;;;4934256;28;96547;-40
2021/05/27 04:31:18;;;;;;;2.30;1.00;;;17.80;73.60;;;;;;4938245;28;96469;-39
2021/05/27 04:33:54;;;;;;;4.40;1.10;;;17.80;73.70;;;;;;4937573;28;96612;-40
2021/05/27 04:36:27;;;;;;;2.60;1.25;;;17.80;73.60;;;;;;4943546;28;96145;-37
2021/05/27 04:38:58;;;;;;;2.00;1.20;;;17.80;73.60;;;;;;4937044;28;95830;-37
2021/05/27 04:41:30;;;;;;;4.03;1.42;;;17.80;73.70;;;;;;4940461;28;95546;-39
2021/05/27 04:44:00;;;;;;;3.70;1.63;;;17.80;73.70;;;;;;4938569;28;95680;-38
2021/05/27 04:46:33;;;;;;;3.30;1.05;;;17.80;73.70;;;;;;4939605;28;96527;-37
2021/05/27 04:49:03;;;;;;;5.90;1.45;;;17.80;73.80;;;;;;4941141;28;95980;-37
2021/05/27 04:51:34;;;;;;;3.63;1.40;;;17.90;73.80;;;;;;4950110;28;95391;-38
2021/05/27 04:54:05;;;;;;;9.82;2.22;;;17.80;73.90;;;;;;4947688;28;95907;-37
2021/05/27 04:56:37;;;;;;;3.70;1.70;;;17.80;74.30;;;;;;4942365;28;96426;-38
2021/05/27 04:59:08;;;;;;;3.70;2.03;;;17.80;74.30;;;;;;4950330;28;97057;-38
2021/05/27 05:01:39;;;;;;;5.23;1.93;;;17.80;74.40;;;;;;4942203;28;99181;-37
2021/05/27 05:04:10;;;;;;;3.83;2.25;;;17.80;74.50;;;;;;4952979;28;97013;-39
2021/05/27 05:06:42;;;;;;;3.43;1.77;;;17.80;74.60;;;;;;4955750;28;97029;-41
2021/05/27 05:09:15;;;;;;;4.35;2.38;;;17.90;75.00;;;;;;4948295;28;95849;-40
2021/05/27 05:11:46;;;;;;;3.75;1.52;;;17.90;75.00;;;;;;4945528;28;95345;-38
2021/05/27 05:14:17;;;;;;;4.40;1.80;;;18.00;75.00;;;;;;4947862;28;95583;-39
2021/05/27 05:16:49;;;;;;;2.45;1.50;;;18.10;74.90;;;;;;4930071;28;96412;-38
2021/05/27 05:19:21;;;;;;;5.22;2.08;;;18.10;74.90;;;;;;4929444;28;95911;-39
2021/05/27 05:21:53;;;;;;;5.93;1.80;;;18.20;74.80;;;;;;4925050;28;95944;-37
2021/05/27 05:24:25;;;;;;;1.77;1.17;;;18.30;74.80;;;;;;4930096;28;95291;-37
2021/05/27 05:26:55;;;;;;;3.35;1.95;;;18.30;74.80;;;;;;4924436;28;96906;-40
2021/05/27 05:29:26;;;;;;;3.10;1.67;;;18.30;74.80;;;;;;4928554;28;96148;-38
2021/05/27 05:31:58;;;;;;;3.42;1.50;;;18.40;75.50;;;;;;4932650;28;95599;-37
2021/05/27 05:34:29;;;;;;;2.08;1.60;;;18.40;74.90;;;;;;4948113;28;95620;-37
2021/05/27 05:37:00;;;;;;;17.70;5.30;;;18.40;74.80;;;;;;4941756;28;96164;-38
2021/05/27 05:39:32;;;;;;;19.33;6.18;;;18.40;74.70;;;;;;4949084;28;95573;-39
2021/05/27 05:42:03;;;;;;;13.73;5.93;;;18.40;75.50;;;;;;4944604;28;95677;-37
2021/05/27 05:44:33;;;;;;;22.63;6.68;;;18.40;75.70;;;;;;4946730;28;95765;-37
2021/05/27 05:47:06;;;;;;;13.45;6.38;;;18.40;75.80;;;;;;4937240;28;96085;-38
2021/05/27 05:49:37;;;;;;;15.80;5.95;;;18.40;75.70;;;;;;4949452;28;95813;-37
2021/05/27 05:52:08;;;;;;;13.70;5.37;;;18.40;75.70;;;;;;4945412;28;95848;-40
2021/05/27 05:54:39;;;;;;;20.00;5.30;;;18.50;75.60;;;;;;4949666;28;95739;-39
2021/05/27 05:57:12;;;;;;;13.52;5.72;;;18.40;75.20;;;;;;4944372;28;97962;-39
2021/05/27 05:59:46;;;;;;;13.48;6.43;;;18.50;75.50;;;;;;4946350;28;95739;-39
2021/05/27 06:02:17;;;;;;;21.05;7.40;;;18.50;75.40;;;;;;4943558;28;95878;-39
2021/05/27 06:04:47;;;;;;;21.27;6.30;;;18.40;75.30;;;;;;4947484;28;95720;-37
2021/05/27 06:07:32;;;;;;;18.98;6.28;;;18.40;75.40;;;;;;4943103;28;102795;-37
2021/05/27 06:10:06;;;;;;;16.23;6.65;;;18.40;75.60;;;;;;4948258;28;96485;-37
2021/05/27 06:12:41;;;;;;;16.25;5.68;;;18.40;75.50;;;;;;4941128;28;95675;-37
2021/05/27 06:15:19;;;;;;;15.60;5.78;;;18.40;75.40;;;;;;4945204;28;95873;-37
2021/05/27 06:18:02;;;;;;;16.05;5.93;;;18.40;75.40;;;;;;4938522;28;102945;-36
2021/05/27 06:20:34;;;;;;;10.68;4.43;;;18.40;75.60;;;;;;4925324;28;95774;-36
2021/05/27 06:23:10;;;;;;;10.23;4.85;;;18.40;75.50;;;;;;4937884;28;95935;-37
2021/05/27 06:25:42;;;;;;;13.95;5.15;;;18.40;75.70;;;;;;4925277;28;95854;-39
2021/05/27 06:28:13;;;;;;;10.73;5.13;;;18.30;75.70;;;;;;4919985;28;97124;-37
2021/05/27 06:30:44;;;;;;;11.10;3.95;;;18.30;75.60;;;;;;4926461;28;98618;-37
2021/05/27 06:33:16;;;;;;;11.07;5.00;;;18.40;75.60;;;;;;4946335;28;96057;-39
2021/05/27 06:35:48;;;;;;;8.05;3.95;;;18.40;75.50;;;;;;4946828;28;96410;-37
2021/05/27 06:38:19;;;;;;;8.43;4.22;;;18.40;75.60;;;;;;4947829;28;96039;-37
2021/05/27 06:40:51;;;;;;;9.93;3.83;;;18.40;75.60;;;;;;4945701;28;95959;-37
2021/05/27 06:43:24;;;;;;;13.30;3.72;;;18.40;75.50;;;;;;4945535;28;95742;-46
2021/05/27 06:45:56;;;;;;;10.48;4.38;;;18.40;75.50;;;;;;4937437;28;95775;-46
2021/05/27 06:48:27;;;;;;;12.23;4.28;;;18.40;75.40;;;;;;4927108;28;96841;-45
2021/05/27 06:50:57;;;;;;;6.90;3.30;;;18.30;75.30;;;;;;4920085;28;97615;-45
2021/05/27 06:53:28;;;;;;;7.15;3.22;;;18.30;75.30;;;;;;4928641;28;95470;-45
2021/05/27 06:55:59;;;;;;;8.35;3.78;;;18.30;75.30;;;;;;4925301;28;95789;-45
2021/05/27 06:58:30;;;;;;;8.13;4.15;;;18.20;75.30;;;;;;4927868;28;97619;-46
2021/05/27 07:01:01;;;;;;;8.83;3.60;;;18.20;75.40;;;;;;4923925;28;96559;-45
2021/05/27 07:03:34;;;;;;;6.93;2.75;;;18.20;75.40;;;;;;4948303;28;95865;-45
2021/05/27 07:06:05;;;;;;;7.80;3.92;;;18.20;75.40;;;;;;4938718;28;95986;-46
2021/05/27 07:08:39;;;;;;;9.45;3.08;;;18.20;75.50;;;;;;4944993;28;96063;-45
2021/05/27 07:11:10;;;;;;;8.02;3.65;;;18.10;75.70;;;;;;4941225;28;100070;-45
2021/05/27 07:13:42;;;;;;;6.63;3.33;;;18.10;76.20;;;;;;4946033;28;95810;-46
2021/05/27 07:16:14;;;;;;;7.28;3.58;;;18.20;76.20;;;;;;4940051;28;95768;-45
2021/05/27 07:18:46;;;;;;;8.68;4.10;;;18.20;76.10;;;;;;4946650;28;96849;-46
2021/05/27 07:21:17;;;;;;;6.22;2.95;;;18.30;76.10;;;;;;4942627;28;95993;-46
2021/05/27 07:23:48;;;;;;;6.40;3.10;;;18.30;76.00;;;;;;4947197;28;95581;-46
2021/05/27 07:26:18;;;;;;;5.93;3.77;;;18.40;76.40;;;;;;4938703;28;96227;-45
2021/05/27 07:28:49;;;;;;;9.32;2.83;;;18.40;76.10;;;;;;4944709;28;96128;-46
2021/05/27 07:31:20;;;;;;;6.55;3.25;;;18.40;76.00;;;;;;4930076;28;101043;-45
2021/05/27 07:33:54;;;;;;;4.70;2.75;;;18.40;75.90;;;;;;4922171;28;95789;-45
2021/05/27 07:36:25;;;;;;;4.30;2.92;;;18.50;75.90;;;;;;4925455;28;95818;-45
2021/05/27 07:38:56;;;;;;;3.72;2.20;;;18.50;76.10;;;;;;4927039;28;97812;-46
2021/05/27 07:41:27;;;;;;;5.10;2.90;;;18.50;76.10;;;;;;4923987;28;95783;-45
2021/05/27 07:43:59;;;;;;;6.82;3.10;;;18.60;76.00;;;;;;4927257;28;96042;-45
2021/05/27 07:46:31;;;;;;;5.25;2.97;;;18.60;76.00;;;;;;4926282;28;97119;-45
2021/05/27 07:49:01;;;;;;;4.50;2.78;;;18.60;76.00;;;;;;4946659;28;96746;-45
2021/05/27 07:51:31;;;;;;;6.30;2.67;;;18.60;76.00;;;;;;4942295;28;96002;-44
2021/05/27 07:54:01;;;;;;;5.72;2.92;;;18.60;76.00;;;;;;4946373;28;95543;-45
2021/05/27 07:56:31;;;;;;;5.28;2.83;;;18.60;75.50;;;;;;4945099;28;95883;-46
2021/05/27 07:59:03;;;;;;;9.05;3.13;;;18.60;75.70;;;;;;4946860;28;96424;-45
2021/05/27 08:01:34;;;;;;;6.60;3.13;;;18.50;75.90;;;;;;4937601;28;98281;-45
2021/05/27 08:04:08;;;;;;;5.20;2.58;;;18.60;76.00;;;;;;4944702;28;95802;-46
2021/05/27 08:06:41;;;;;;;6.22;2.92;;;18.60;76.00;;;;;;4943058;28;95905;-46
2021/05/27 08:09:13;;;;;;;5.63;2.88;;;18.60;76.10;;;;;;4945704;28;96204;-46
2021/05/27 08:11:45;;;;;;;4.90;2.67;;;18.60;76.00;;;;;;4945170;28;96408;-44
2021/05/27 08:14:15;;;;;;;3.75;2.72;;;18.60;76.10;;;;;;4943730;28;98129;-45
2021/05/27 08:16:47;;;;;;;5.53;3.10;;;18.60;76.00;;;;;;4941231;28;95860;-42
2021/05/27 08:19:19;;;;;;;4.50;2.45;;;18.70;75.90;;;;;;4939554;28;96141;-43
2021/05/27 08:21:51;;;;;;;6.55;2.90;;;18.70;75.90;;;;;;4944726;28;96374;-41
2021/05/27 08:24:21;;;;;;;6.35;3.60;;;18.80;75.80;;;;;;4942419;28;95976;-43
2021/05/27 08:26:51;;;;;;;6.70;3.63;;;18.80;75.00;;;;;;4946158;28;96019;-43
2021/05/27 08:29:21;;;;;;;6.90;3.25;;;18.60;74.80;;;;;;4940211;28;96696;-42
2021/05/27 08:31:52;;;;;;;4.55;3.00;;;18.60;75.10;;;;;;4928038;28;95753;-44
2021/05/27 08:34:23;;;;;;;6.38;3.75;;;18.50;74.90;;;;;;4922831;28;95862;-42
2021/05/27 08:36:55;;;;;;;8.15;4.45;;;18.50;75.10;;;;;;4925628;28;97446;-42
2021/05/27 08:39:26;;;;;;;8.52;3.80;;;18.50;75.10;;;;;;4923662;28;96128;-42
2021/05/27 08:41:57;;;;;;;8.50;4.50;;;18.40;75.20;;;;;;4925589;28;95783;-43
2021/05/27 08:44:27;;;;;;;4.75;3.55;;;18.40;75.10;;;;;;4921005;28;95862;-43
2021/05/27 08:46:58;;;;;;;8.60;3.42;;;18.40;75.20;;;;;;4923143;28;98023;-43
2021/05/27 08:49:30;;;;;;;;;;;18.40;75.40;;;;;;4938957;28;97767;-46
2021/05/27 08:52:00;;;;;;;8.23;2.70;;;18.50;75.40;;;;;;4927277;28;95958;-45
2021/05/27 08:54:32;;;;;;;5.00;3.47;;;18.50;75.30;;;;;;4923785;28;95810;-45
2021/05/27 08:57:06;;;;;;;6.50;3.85;;;18.60;75.30;;;;;;4926533;28;95411;-46
2021/05/27 08:59:38;;;;;;;7.93;3.92;;;18.60;75.10;;;;;;4923317;28;99187;-44
2021/05/27 09:02:10;;;;;;;7.07;3.70;;;18.60;75.10;;;;;;4937146;28;96194;-45
2021/05/27 09:04:41;;;;;;;6.30;3.33;;;18.60;75.10;;;;;;4943210;28;97262;-43
2021/05/27 09:07:12;;;;;;;4.75;2.55;;;18.70;75.20;;;;;;4946756;28;95627;-43
2021/05/27 09:09:58;;;;;;;5.07;2.85;;;18.70;75.20;;;;;;4941222;28;96043;-42
2021/05/27 09:12:34;;;;;;;5.15;3.15;;;18.70;75.10;;;;;;4944111;28;95826;-42
2021/05/27 09:15:19;;;;;;;4.47;2.90;;;18.70;75.30;;;;;;4939952;28;95410;-43
2021/05/27 09:17:54;;;;;;;4.78;2.55;;;18.70;75.20;;;;;;4925392;28;96117;-43
2021/05/27 09:20:29;;;;;;;4.28;2.70;;;18.80;75.30;;;;;;4921636;28;96469;-44
2021/05/27 09:23:21;;;;;;;2.20;1.75;;;18.80;75.40;;;;;;4925799;28;95969;-42
2021/05/27 09:25:56;;;;;;;;;;;18.80;75.40;;;;;;4921051;28;95918;-44
2021/05/27 09:28:28;;;;;;;4.07;2.20;;;18.80;75.30;;;;;;4925341;28;95973;-44
2021/05/27 09:31:05;;;;;;;3.75;2.42;;;18.80;75.20;;;;;;4923456;28;99594;-44
2021/05/27 09:33:41;;;;;;;3.75;2.20;;;18.90;75.30;;;;;;4944997;28;96120;-44
2021/05/27 09:36:16;;;;;;;4.57;2.85;;;18.90;75.20;;;;;;4945080;28;95735;-44
2021/05/27 09:38:54;;;;;;;3.20;2.40;;;18.80;74.00;;;;;;4947504;28;95713;-44
2021/05/27 09:41:27;;;;;;;3.25;2.30;;;18.60;74.00;;;;;;4942511;28;96066;-44
2021/05/27 09:44:02;;;;;;;5.45;2.90;;;18.50;74.20;;;;;;4945850;28;95818;-44
2021/05/27 09:46:56;;;;;;;5.13;2.38;;;18.40;74.40;;;;;;4937739;28;97867;-44
2021/05/27 09:49:28;;;;;;;6.40;3.15;;;18.40;74.50;;;;;;4945983;28;95506;-44
2021/05/27 09:52:18;;;;;;;4.00;2.03;;;18.40;74.50;;;;;;4945899;28;96548;-44
2021/05/27 09:54:55;;;;;;;4.03;2.45;;;18.30;74.50;;;;;;4948673;28;97088;-43
2021/05/27 09:57:32;;;;;;;5.95;2.63;;;18.30;74.50;;;;;;4943712;28;96136;-44
2021/05/27 10:00:07;;;;;;;5.63;2.58;;;18.30;74.50;;;;;;4946609;28;95384;-44
2021/05/27 10:02:38;;;;;;;4.72;2.47;;;18.20;74.40;;;;;;4934259;28;96959;-44
2021/05/27 10:05:10;;;;;;;5.05;2.30;;;18.20;74.50;;;;;;4948713;28;95458;-44
2021/05/27 10:07:46;;;;;;;5.75;2.70;;;18.20;74.50;;;;;;4942456;28;95344;-44
2021/05/27 10:10:44;;;;;;;3.58;2.80;;;18.20;74.60;;;;;;4948817;28;96298;-43
2021/05/27 10:13:20;;;;;;;5.72;2.80;;;18.10;74.60;;;;;;4942810;28;96783;-44
2021/05/27 10:15:56;;;;;;;5.00;3.08;;;18.10;74.80;;;;;;4944962;28;95563;-44
2021/05/27 10:18:28;;;;;;;4.13;2.50;;;18.10;74.80;;;;;;4940198;28;96089;-44
2021/05/27 10:21:04;;;;;;;4.00;2.53;;;18.10;74.80;;;;;;4949118;28;96060;-44
2021/05/27 10:23:34;;;;;;;3.50;2.25;;;18.00;74.90;;;;;;4940996;28;99806;-43
2021/05/27 10:26:07;;;;;;;3.78;2.80;;;17.90;75.00;;;;;;4948442;28;95799;-43
2021/05/27 10:28:45;;;;;;;4.35;2.63;;;17.90;75.20;;;;;;4936791;28;96987;-45
2021/05/27 10:31:20;;;;;;;4.15;2.20;;;17.80;75.20;;;;;;4936956;28;95291;-44
2021/05/27 10:33:52;;;;;;;3.63;2.22;;;17.80;75.60;;;;;;4938250;28;96437;-44
2021/05/27 10:36:42;;;;;;;3.75;2.90;;;17.70;75.40;;;;;;4945531;28;96207;-44
2021/05/27 10:39:33;;;;;;;2.85;2.17;;;17.70;75.50;;;;;;4942940;28;95365;-44
2021/05/27 10:42:06;;;;;;;4.15;2.63;;;17.60;75.60;;;;;;4947078;28;95929;-44
2021/05/27 10:45:10;;;;;;;4.05;2.78;;;17.60;75.60;;;;;;4938766;28;96157;-44
2021/05/27 10:48:20;;;;;;;6.90;2.88;;;17.60;75.60;;;;;;4945223;28;96171;-44
2021/05/27 10:50:52;;;;;;;4.65;2.60;;;17.50;75.70;;;;;;4942338;28;95552;-44
2021/05/27 10:56:09;;;;;;;4.45;2.83;;;17.40;75.90;;;;;;4947945;28;95900;-45
2021/05/27 10:58:51;;;;;;;5.15;2.78;;;17.40;76.60;;;;;;4943233;28;95686;-44
2021/05/27 11:01:33;;;;;;;3.05;2.50;;;17.40;76.00;;;;;;4938846;28;96443;-43
2021/05/27 11:04:06;;;;;;;4.68;3.08;;;17.40;75.90;;;;;;4955582;28;95777;-44
2021/05/27 11:06:41;;;;;;;4.32;3.08;;;17.40;76.00;;;;;;4946797;28;96576;-44
2021/05/27 11:09:24;;;;;;;5.50;3.33;;;17.40;76.10;;;;;;4940043;28;95820;-44
2021/05/27 11:12:10;;;;;;;4.97;2.47;;;17.30;76.20;;;;;;4947514;28;95791;-44
2021/05/27 11:14:47;;;;;;;6.07;3.10;;;17.30;76.40;;;;;;4942784;28;95259;-44
2021/05/27 11:17:23;;;;;;;4.43;2.75;;;17.20;76.40;;;;;;4939332;28;97577;-44
2021/05/27 11:20:08;;;;;;;5.78;3.10;;;17.20;76.60;;;;;;4940110;28;95986;-44
2021/05/27 11:25:24;;;;;;;3.42;2.50;;;17.20;76.70;;;;;;4941464;28;96643;-43
2021/05/27 11:27:55;;;;;;;4.03;2.95;;;17.10;76.70;;;;;;4942876;28;96284;-44
2021/05/27 11:30:41;;;;;;;7.15;3.17;;;17.00;76.70;;;;;;4939018;28;96023;-44
2021/05/27 11:33:28;;;;;;;4.32;2.80;;;17.00;76.80;;;;;;4925768;28;97025;-44
2021/05/27 11:36:05;;;;;;;4.45;2.80;;;17.00;76.90;;;;;;4921430;28;95426;-43
2021/05/27 11:38:40;;;;;;;4.68;2.97;;;17.00;76.90;;;;;;4926411;28;96563;-44
2021/05/27 11:41:17;;;;;;;3.63;2.38;;;16.90;76.90;;;;;;4921404;28;95567;-44
2021/05/27 11:43:56;;;;;;;3.08;2.35;;;16.90;76.90;;;;;;4923495;28;95386;-43
2021/05/27 11:46:30;;;;;;;4.05;2.60;;;16.90;77.40;;;;;;4926886;28;95767;-44
2021/05/27 11:49:02;;;;;;;5.88;2.95;;;16.90;77.00;;;;;;4944306;28;96179;-44
2021/05/27 11:51:38;;;;;;;4.38;2.67;;;16.90;77.00;;;;;;4943124;28;96350;-44
2021/05/27 11:54:11;;;;;;;4.85;2.47;;;16.80;77.00;;;;;;4943478;28;95689;-44
2021/05/27 11:56:50;;;;;;;3.88;2.60;;;16.80;77.00;;;;;;4941968;28;95682;-44
2021/05/27 11:59:28;;;;;;;3.30;2.30;;;16.80;77.10;;;;;;4945821;28;97231;-45
2021/05/27 12:02:03;;;;;;;4.00;3.08;;;16.80;77.20;;;;;;4938152;28;95516;-44
2021/05/27 12:04:33;;;;;;;4.05;2.53;;;16.80;77.10;;;;;;4947152;28;95689;-44
2021/05/27 12:07:15;;;;;;;2.92;2.63;;;16.70;77.10;;;;;;4940641;28;95885;-41
2021/05/27 12:09:49;;;;;;;3.88;2.47;;;16.70;77.20;;;;;;4946124;28;95300;-44
2021/05/27 12:12:26;;;;;;;3.35;2.83;;;16.70;77.30;;;;;;4939330;28;96308;-44
2021/05/27 12:15:02;;;;;;;3.95;2.78;;;16.70;77.40;;;;;;4943487;28;95444;-44
2021/05/27 12:17:42;;;;;;;4.38;2.33;;;16.60;77.40;;;;;;4940689;28;97773;-44
2021/05/27 12:20:33;;;;;;;3.97;2.90;;;16.60;77.40;;;;;;4954260;28;97367;-45
2021/05/27 12:23:15;;;;;;;3.78;2.20;;;16.60;77.30;;;;;;4939234;28;95754;-44
2021/05/27 12:25:52;;;;;;;4.85;2.92;;;16.60;77.30;;;;;;4945965;28;96139;-45
2021/05/27 12:28:27;;;;;;;3.65;2.15;;;16.60;77.40;;;;;;4937311;28;96822;-44
2021/05/27 12:31:00;;;;;;;3.47;2.42;;;16.50;77.40;;;;;;4939171;28;96762;-44
2021/05/27 12:33:34;;;;;;;3.88;2.28;;;16.50;77.30;;;;;;4939535;28;95890;-44
2021/05/27 12:36:06;;;;;;;3.95;2.70;;;16.50;77.40;;;;;;4942515;28;95706;-45
2021/05/27 12:38:47;;;;;;;3.03;2.50;;;16.50;77.40;;;;;;4941870;28;95731;-44
2021/05/27 12:41:19;;;;;;;2.88;2.25;;;16.50;77.40;;;;;;4945602;28;96071;-45
2021/05/27 12:43:54;;;;;;;2.38;2.05;;;16.50;77.40;;;;;;4936164;28;96073;-44
2021/05/27 12:46:33;;;;;;;3.20;2.00;;;16.40;77.40;;;;;;4940475;28;95947;-45
2021/05/27 12:49:03;;;;;;;3.63;2.45;;;16.40;77.50;;;;;;4940477;28;95562;-44
2021/05/27 12:51:41;;;;;;;3.67;2.33;;;16.40;77.50;;;;;;4946917;28;96083;-45
2021/05/27 12:54:22;;;;;;;3.30;2.28;;;16.40;77.50;;;;;;4941362;28;98052;-44
2021/05/27 12:57:08;;;;;;;3.15;2.10;;;16.40;77.50;;;;;;4942406;28;95765;-38
2021/05/27 12:59:57;;;;;;;1.98;1.60;;;16.40;77.70;;;;;;4943477;28;96036;-44
2021/05/27 13:02:29;;;;;;;2.78;1.70;;;16.40;77.80;;;;;;4945640;28;96715;-44
2021/05/27 13:05:14;;;;;;;6.25;2.33;;;16.60;77.90;;;;;;4940894;28;95951;-44
2021/05/27 13:08:05;;;;;;;3.60;2.25;;;16.70;77.60;;;;;;4940758;28;95811;-45
2021/05/27 13:10:42;;;;;;;2.33;1.67;;;16.80;77.60;;;;;;4947289;28;97136;-41
2021/05/27 13:13:12;;;;;;;2.78;1.88;;;16.80;77.50;;;;;;4945299;28;96171;-43
2021/05/27 13:15:49;;;;;;;1.65;1.45;;;16.90;77.40;;;;;;4936360;28;97654;-45
2021/05/27 13:18:20;;;;;;;2.75;1.40;;;17.00;77.40;;;;;;4929609;28;95800;-43
2021/05/27 13:21:04;;;;;;;2.70;1.85;;;17.10;77.30;;;;;;4925586;28;95949;-45
2021/05/27 13:23:37;;;;;;;4.07;2.03;;;17.20;77.20;;;;;;4929110;28;96102;-45
2021/05/27 13:26:20;;;;;;;1.65;1.50;;;17.30;77.20;;;;;;4926247;28;95880;-44
2021/05/27 13:29:06;;;;;;;1.90;1.70;;;17.40;77.10;;;;;;4928527;28;95638;-45
2021/05/27 13:31:41;;;;;;;2.38;1.50;;;17.50;76.90;;;;;;4924825;28;95426;-45
2021/05/27 13:34:14;;;;;;;2.03;1.60;;;17.60;76.70;;;;;;4929466;28;96560;-44
2021/05/27 13:36:47;;;;;;;1.70;1.38;;;17.70;76.50;;;;;;4927013;28;102313;-45
2021/05/27 13:39:24;;;;;;;2.20;1.50;;;17.70;76.50;;;;;;4928789;28;95844;-44